Terminal Aerodrome Forecast
Issued by NWS

Home | Current Version | Previous Version | Text Only | Print | Product List | Glossary On
Versions: 1 2 3 4 5 6 7 8 9 10 11 12 13
000
FTUS43 KGRB 011740
TAFCWA
TAF
KCWA 011740Z 0118/0218 28011G17KT P6SM SCT060
     FM020000 24005KT P6SM SCT100
     FM020400 21005KT P6SM VCSH BKN080 WS010/24040KT PROB30
      0206/0212 3SM SHRA BR BKN040=

USA.gov is the U.S. government's official web portal to all federal, state and local government web resources and services.